createdAt,value
2018-07-27T00:01:18.164Z,97512.04
2018-07-27T00:03:46.747Z,97519.50
2018-07-27T00:06:15.416Z,97517.91
2018-07-27T00:08:44.060Z,97517.38
2018-07-27T00:11:12.745Z,97521.28
2018-07-27T00:13:41.442Z,97527.72
2018-07-27T00:16:10.184Z,97520.53
2018-07-27T00:18:38.796Z,97519.38
2018-07-27T00:21:07.456Z,97514.16
2018-07-27T00:23:36.166Z,97517.98
2018-07-27T00:26:05.537Z,97517.14
2018-07-27T00:28:34.168Z,97520.03
2018-07-27T00:31:03.136Z,97522.20
2018-07-27T00:33:31.759Z,97528.30
2018-07-27T00:36:00.575Z,97533.80
2018-07-27T00:38:29.191Z,97528.84
2018-07-27T00:40:57.783Z,97534.59
2018-07-27T00:43:26.358Z,97528.21
2018-07-27T00:45:54.949Z,97529.80
2018-07-27T00:48:24.546Z,97525.59
2018-07-27T00:50:53.143Z,97527.80
2018-07-27T00:53:21.788Z,97523.05
2018-07-27T00:55:50.469Z,97523.00
2018-07-27T00:58:19.191Z,97518.89
2018-07-27T01:00:47.880Z,97520.00
2018-07-27T01:03:17.165Z,97515.57
2018-07-27T01:05:45.876Z,97518.03
2018-07-27T01:08:15.480Z,97520.19
2018-07-27T01:10:44.217Z,97516.87
2018-07-27T01:13:12.934Z,97525.45
2018-07-27T01:15:41.868Z,97523.77
2018-07-27T01:18:10.965Z,97528.45
2018-07-27T01:20:40.767Z,97527.95
2018-07-27T01:23:09.400Z,97524.48
2018-07-27T01:25:38.600Z,97524.88
2018-07-27T01:28:07.558Z,97528.17
2018-07-27T01:30:36.905Z,97525.83
2018-07-27T01:33:05.899Z,97527.48
2018-07-27T01:35:34.598Z,97538.19
2018-07-27T01:38:03.272Z,97539.27
2018-07-27T01:40:31.982Z,97536.05
2018-07-27T01:43:00.597Z,97532.52
2018-07-27T01:45:29.271Z,97529.31
2018-07-27T01:47:57.813Z,97536.95
2018-07-27T01:50:26.447Z,97531.84
2018-07-27T01:52:55.228Z,97529.48
2018-07-27T01:55:24.317Z,97532.28
2018-07-27T01:57:53.977Z,97530.36
2018-07-27T02:00:22.991Z,97526.77
2018-07-27T02:02:51.721Z,97525.80
2018-07-27T02:05:20.582Z,97521.41
2018-07-27T02:07:49.205Z,97515.78
2018-07-27T02:10:17.838Z,97516.23
2018-07-27T02:12:47.314Z,97512.81
2018-07-27T02:15:16.951Z,97519.27
2018-07-27T02:17:48.009Z,97521.38
2018-07-27T02:20:16.818Z,97522.39
2018-07-27T02:22:45.512Z,97524.16
2018-07-27T02:25:14.169Z,97522.77
2018-07-27T02:27:42.766Z,97527.59
2018-07-27T02:30:11.696Z,97528.59
2018-07-27T02:32:40.804Z,97533.95
2018-07-27T02:35:10.391Z,97528.24
2018-07-27T02:37:39.941Z,97522.18
2018-07-27T02:40:08.564Z,97520.88
2018-07-27T02:42:37.818Z,97522.52
2018-07-27T02:45:06.896Z,97526.58
2018-07-27T02:47:35.461Z,97519.02
2018-07-27T02:50:04.653Z,97530.09
2018-07-27T02:52:33.292Z,97529.99
2018-07-27T02:55:01.889Z,97527.78
2018-07-27T02:57:31.334Z,97515.21
2018-07-27T03:00:00.268Z,97510.54
2018-07-27T03:02:28.882Z,97499.89
2018-07-27T03:04:57.726Z,97505.05
2018-07-27T03:07:26.416Z,97498.58
2018-07-27T03:09:55.036Z,97495.23
2018-07-27T03:12:23.683Z,97491.61
2018-07-27T03:14:52.378Z,97495.58
2018-07-27T03:17:21.085Z,97499.41
2018-07-27T03:19:49.710Z,97487.34
2018-07-27T03:22:18.849Z,97485.02
2018-07-27T03:24:48.333Z,97480.08
2018-07-27T03:27:16.958Z,97478.58
2018-07-27T03:29:45.569Z,97478.63
2018-07-27T03:32:14.925Z,97492.71
2018-07-27T03:34:43.626Z,97482.23
2018-07-27T03:37:12.528Z,97482.98
2018-07-27T03:39:41.152Z,97473.83
2018-07-27T03:42:10.415Z,97473.90
2018-07-27T03:44:38.948Z,97471.88
2018-07-27T03:47:07.609Z,97478.97
2018-07-27T03:49:37.544Z,97478.69
2018-07-27T03:52:06.125Z,97478.75
2018-07-27T03:54:34.810Z,97479.77
2018-07-27T03:57:03.812Z,97477.26
2018-07-27T03:59:33.302Z,97482.28
2018-07-27T04:02:02.023Z,97488.20
2018-07-27T04:04:30.661Z,97479.86
2018-07-27T04:06:59.323Z,97489.19
2018-07-27T04:09:28.857Z,97484.39
2018-07-27T04:11:57.466Z,97476.52
2018-07-27T04:14:26.332Z,97482.41
2018-07-27T04:16:55.008Z,97477.48
2018-07-27T04:19:24.379Z,97479.34
2018-07-27T04:21:53.097Z,97488.84
2018-07-27T04:24:21.688Z,97480.52
2018-07-27T04:26:50.687Z,97475.05
2018-07-27T04:29:19.332Z,97475.84
2018-07-27T04:31:48.691Z,97473.19
2018-07-27T04:34:17.566Z,97472.29
2018-07-27T04:36:46.605Z,97463.52
2018-07-27T04:39:16.102Z,97469.09
2018-07-27T04:41:45.063Z,97475.45
2018-07-27T04:44:14.400Z,97473.59
2018-07-27T04:46:43.121Z,97468.48
2018-07-27T04:49:11.738Z,97458.84
2018-07-27T04:51:40.472Z,97462.67
2018-07-27T04:54:09.109Z,97460.50
2018-07-27T04:56:37.842Z,97458.14
2018-07-27T04:59:11.175Z,97451.28
2018-07-27T05:01:39.781Z,97453.05
2018-07-27T05:04:08.548Z,97459.81
2018-07-27T05:06:37.591Z,97464.84
2018-07-27T05:09:13.186Z,97467.87
2018-07-27T05:11:42.219Z,97473.44
2018-07-27T05:14:10.815Z,97475.45
2018-07-27T05:16:39.420Z,97477.97
2018-07-27T05:19:08.027Z,97479.12
2018-07-27T05:21:37.020Z,97478.33
2018-07-27T05:24:05.919Z,97480.02
2018-07-27T05:26:34.610Z,97474.70
2018-07-27T05:29:03.303Z,97475.83
2018-07-27T05:31:33.150Z,97480.28
2018-07-27T05:34:01.818Z,97476.29
2018-07-27T05:36:30.466Z,97482.57
2018-07-27T05:38:59.520Z,97484.63
2018-07-27T05:41:28.241Z,97479.77
2018-07-27T05:43:56.862Z,97479.08
2018-07-27T05:46:25.582Z,97480.94
2018-07-27T05:48:54.257Z,97483.83
2018-07-27T05:51:22.859Z,97484.23
2018-07-27T05:53:51.692Z,97491.73
2018-07-27T05:56:20.330Z,97493.62
2018-07-27T05:58:49.040Z,97486.52
2018-07-27T06:01:17.749Z,97478.59
2018-07-27T06:03:46.294Z,97481.67
2018-07-27T06:06:15.863Z,97484.09
2018-07-27T06:08:44.699Z,97489.00
2018-07-27T06:11:13.646Z,97488.09
2018-07-27T06:13:42.264Z,97489.43
2018-07-27T06:16:11.204Z,97494.69
2018-07-27T06:18:39.849Z,97486.63
2018-07-27T06:21:08.767Z,97499.26
2018-07-27T06:23:37.779Z,97493.67
2018-07-27T06:26:07.101Z,97493.75
2018-07-27T06:28:35.742Z,97493.10
2018-07-27T06:31:05.166Z,97488.66
2018-07-27T06:33:33.841Z,97494.50
2018-07-27T06:36:02.788Z,97492.49
2018-07-27T06:38:31.441Z,97492.42
2018-07-27T06:41:00.063Z,97490.70
2018-07-27T06:43:28.983Z,97493.52
2018-07-27T06:45:57.675Z,97487.84
2018-07-27T06:48:26.690Z,97497.34
2018-07-27T06:50:55.410Z,97499.77
2018-07-27T06:53:24.371Z,97496.47
2018-07-27T06:55:53.021Z,97498.66
2018-07-27T06:58:21.653Z,97502.02
2018-07-27T07:00:50.399Z,97506.31
2018-07-27T07:03:19.484Z,97503.38
2018-07-27T07:05:48.140Z,97499.34
2018-07-27T07:08:16.771Z,97497.21
2018-07-27T07:10:45.772Z,97494.26
2018-07-27T07:13:14.426Z,97499.80
2018-07-27T07:15:43.123Z,97501.97
2018-07-27T07:18:11.823Z,97500.61
2018-07-27T07:20:40.525Z,97498.31
2018-07-27T07:23:09.216Z,97494.06
2018-07-27T07:25:38.064Z,97492.52
2018-07-27T07:28:06.774Z,97490.58
2018-07-27T07:30:36.039Z,97491.39
2018-07-27T07:33:04.739Z,97485.73
2018-07-27T07:35:33.633Z,97487.31
2018-07-27T07:38:02.366Z,97487.10
2018-07-27T07:40:31.008Z,97478.63
2018-07-27T07:42:59.625Z,97480.00
2018-07-27T07:45:28.346Z,97479.58
2018-07-27T07:47:57.032Z,97478.98
2018-07-27T07:50:25.732Z,97477.79
2018-07-27T07:52:54.387Z,97471.25
2018-07-27T07:55:23.060Z,97471.83
2018-07-27T07:57:51.815Z,97479.47
2018-07-27T08:00:20.451Z,97472.58
2018-07-27T08:02:49.088Z,97467.58
2018-07-27T08:05:17.674Z,97474.27
2018-07-27T08:07:46.927Z,97467.09
2018-07-27T08:10:15.616Z,97471.95
2018-07-27T08:12:44.215Z,97467.92
2018-07-27T08:15:13.482Z,97470.05
2018-07-27T08:17:42.233Z,97472.20
2018-07-27T08:20:11.494Z,97471.75
2018-07-27T08:22:40.210Z,97465.64
2018-07-27T08:25:08.968Z,97464.41
2018-07-27T08:27:37.593Z,97463.73
2018-07-27T08:30:06.187Z,97459.71
2018-07-27T08:32:34.820Z,97465.53
2018-07-27T08:35:03.750Z,97461.69
2018-07-27T08:37:32.531Z,97465.97
2018-07-27T08:40:01.254Z,97460.22
2018-07-27T08:42:30.409Z,97465.41
2018-07-27T08:44:59.157Z,97465.28
2018-07-27T08:47:27.941Z,97462.42
2018-07-27T08:49:56.590Z,97464.12
2018-07-27T08:52:25.284Z,97461.47
2018-07-27T08:54:53.991Z,97458.36
2018-07-27T08:57:22.649Z,97460.98
2018-07-27T08:59:51.843Z,97457.20
2018-07-27T09:02:20.488Z,97463.92
2018-07-27T09:04:49.276Z,97457.56
2018-07-27T09:07:17.990Z,97456.95
2018-07-27T09:09:46.613Z,97449.15
2018-07-27T09:12:15.321Z,97444.81
2018-07-27T09:14:43.923Z,97448.59
2018-07-27T09:17:12.650Z,97449.88
2018-07-27T09:19:41.353Z,97444.52
2018-07-27T09:22:10.655Z,97442.45
2018-07-27T09:24:39.405Z,97441.63
2018-07-27T09:27:08.086Z,97440.86
2018-07-27T09:29:36.840Z,97434.72
2018-07-27T09:32:05.564Z,97435.68
2018-07-27T09:34:34.283Z,97430.09
2018-07-27T09:37:02.919Z,97435.64
2018-07-27T09:39:31.792Z,97431.45
2018-07-27T09:42:00.485Z,97431.79
2018-07-27T09:44:29.091Z,97429.10
2018-07-27T09:46:57.821Z,97422.28
2018-07-27T09:49:26.553Z,97428.94
2018-07-27T09:51:55.263Z,97424.02
2018-07-27T09:54:23.920Z,97419.97
2018-07-27T09:56:52.878Z,97424.18
2018-07-27T09:59:21.625Z,97416.70
2018-07-27T10:01:50.316Z,97419.30
2018-07-27T10:04:18.997Z,97425.45
2018-07-27T10:06:47.735Z,97423.28
2018-07-27T10:09:16.589Z,97417.78
2018-07-27T10:11:45.249Z,97420.23
2018-07-27T10:14:13.926Z,97415.78
2018-07-27T10:16:42.535Z,97417.95
2018-07-27T10:19:11.198Z,97416.81
2018-07-27T10:21:39.828Z,97409.70
2018-07-27T10:24:08.681Z,97416.91
2018-07-27T10:26:37.366Z,97408.08
2018-07-27T10:29:06.166Z,97407.98
2018-07-27T10:31:34.793Z,97411.98
2018-07-27T10:34:03.493Z,97407.30
2018-07-27T10:36:32.476Z,97406.12
2018-07-27T10:39:01.373Z,97406.97
2018-07-27T10:41:30.077Z,97400.86
2018-07-27T10:43:59.049Z,97391.05
2018-07-27T10:46:27.787Z,97398.95
2018-07-27T10:48:56.436Z,97396.90
2018-07-27T10:51:25.085Z,97390.88
2018-07-27T10:53:54.288Z,97383.84
2018-07-27T10:56:22.987Z,97385.55
2018-07-27T10:58:51.563Z,97387.42
2018-07-27T11:01:20.333Z,97385.74
2018-07-27T11:03:48.919Z,97380.88
2018-07-27T11:06:18.239Z,97375.84
2018-07-27T11:08:46.976Z,97380.92
2018-07-27T11:11:15.713Z,97378.48
2018-07-27T11:13:45.293Z,97375.03
2018-07-27T11:16:13.974Z,97366.87
2018-07-27T11:18:42.710Z,97362.95
2018-07-27T11:21:11.777Z,97367.56
2018-07-27T11:23:40.562Z,97359.86
2018-07-27T11:26:09.626Z,97359.55
2018-07-27T11:28:38.666Z,97361.13
2018-07-27T11:31:07.996Z,97357.72
2018-07-27T11:33:36.677Z,97358.19
2018-07-27T11:36:05.478Z,97358.65
2018-07-27T11:38:34.483Z,97355.35
2018-07-27T11:41:03.187Z,97352.77
2018-07-27T11:43:32.082Z,97344.98
2018-07-27T11:46:00.910Z,97340.27
2018-07-27T11:48:29.622Z,97338.84
2018-07-27T11:50:58.339Z,97337.56
2018-07-27T11:53:26.972Z,97335.63
2018-07-27T11:55:55.789Z,97329.10
2018-07-27T11:58:24.686Z,97327.14
2018-07-27T12:00:53.522Z,97322.31
2018-07-27T12:03:24.113Z,97323.97
2018-07-27T12:05:52.836Z,97324.20
2018-07-27T12:08:22.626Z,97326.70
2018-07-27T12:10:51.349Z,97320.72
2018-07-27T12:13:20.458Z,97320.38
2018-07-27T12:15:49.492Z,97315.36
2018-07-27T12:18:18.480Z,97284.03
2018-07-27T12:23:58.578Z,97309.72
2018-07-27T12:26:29.409Z,97298.70
2018-07-27T12:28:58.141Z,97300.48
2018-07-27T12:31:26.852Z,97300.84
2018-07-27T12:33:55.844Z,97291.16
2018-07-27T12:36:24.485Z,97290.13
2018-07-27T12:38:53.551Z,97284.81
2018-07-27T12:41:22.147Z,97297.14
2018-07-27T12:43:50.970Z,97290.77
2018-07-27T12:46:19.635Z,97293.00
2018-07-27T12:48:48.276Z,97290.51
2018-07-27T12:51:17.700Z,97295.55
2018-07-27T12:53:46.281Z,97297.95
2018-07-27T12:56:15.885Z,97284.38
2018-07-27T12:58:44.471Z,97281.89
2018-07-27T13:01:13.088Z,97275.79
2018-07-27T13:03:41.756Z,97272.28
2018-07-27T13:06:10.594Z,97278.47
2018-07-27T13:08:39.440Z,97272.95
2018-07-27T13:11:08.172Z,97267.11
2018-07-27T13:13:36.790Z,97256.44
2018-07-27T13:16:05.769Z,97261.38
2018-07-27T13:18:34.268Z,97260.83
2018-07-27T13:21:02.934Z,97251.13
2018-07-27T13:23:31.512Z,97251.56
2018-07-27T13:28:40.833Z,97256.45
2018-07-27T13:31:10.194Z,97255.55
2018-07-27T13:33:39.841Z,97248.06
2018-07-27T13:36:08.457Z,97240.06
2018-07-27T13:38:37.091Z,97239.00
2018-07-27T13:41:05.818Z,97234.86
2018-07-27T13:43:34.442Z,97236.84
2018-07-27T13:46:03.078Z,97236.38
2018-07-27T13:48:31.687Z,97239.42
2018-07-27T13:51:00.430Z,97231.59
2018-07-27T13:53:29.126Z,97224.94
2018-07-27T13:55:57.718Z,97232.45
2018-07-27T13:58:26.339Z,97223.14
2018-07-27T14:00:55.015Z,97230.49
2018-07-27T14:03:23.709Z,97227.30
2018-07-27T14:05:52.297Z,97229.75
2018-07-27T14:08:21.171Z,97231.61
2018-07-27T14:10:49.796Z,97227.41
2018-07-27T14:13:18.438Z,97227.48
2018-07-27T14:15:47.429Z,97222.00
2018-07-27T14:18:16.076Z,97224.42
2018-07-27T14:20:44.707Z,97217.58
2018-07-27T14:23:13.343Z,97218.98
2018-07-27T14:25:42.053Z,97213.64
2018-07-27T14:28:11.674Z,97218.73
2018-07-27T14:30:40.531Z,97214.52
2018-07-27T14:33:09.283Z,97214.54
2018-07-27T14:35:37.968Z,97210.30
2018-07-27T14:38:06.551Z,97203.81
2018-07-27T14:40:35.200Z,97209.38
2018-07-27T14:43:03.826Z,97203.34
2018-07-27T14:45:32.478Z,97202.10
2018-07-27T14:48:01.224Z,97200.23
2018-07-27T14:50:30.372Z,97201.86
2018-07-27T14:52:59.024Z,97198.91
2018-07-27T14:55:28.788Z,97199.85
2018-07-27T14:57:57.461Z,97199.28
2018-07-27T15:00:26.859Z,97198.17
2018-07-27T15:02:55.943Z,97197.21
2018-07-27T15:05:25.772Z,97193.63
2018-07-27T15:07:54.505Z,97191.78
2018-07-27T15:10:23.160Z,97191.53
2018-07-27T15:12:51.921Z,97193.98
2018-07-27T15:15:20.628Z,97188.16
2018-07-27T15:17:49.492Z,97183.19
2018-07-27T15:20:18.297Z,97185.61
2018-07-27T15:22:46.996Z,97184.33
2018-07-27T15:25:21.631Z,97187.38
2018-07-27T15:27:50.529Z,97179.83
2018-07-27T15:30:19.173Z,97185.75
2018-07-27T15:32:48.694Z,97173.93
2018-07-27T15:35:19.528Z,97177.40
2018-07-27T15:37:48.162Z,97171.81
2018-07-27T15:40:16.923Z,97168.83
2018-07-27T15:42:45.887Z,97172.50
2018-07-27T15:45:14.566Z,97161.84
2018-07-27T15:47:43.228Z,97167.88
2018-07-27T15:50:12.186Z,97167.27
2018-07-27T15:52:41.482Z,97161.34
2018-07-27T15:55:10.109Z,97160.93
2018-07-27T15:57:40.297Z,97158.69
2018-07-27T16:00:09.560Z,97158.55
2018-07-27T16:02:38.293Z,97156.28
2018-07-27T16:05:07.314Z,97153.93
2018-07-27T16:07:36.264Z,97148.96
2018-07-27T16:10:05.340Z,97148.19
2018-07-27T16:12:34.045Z,97146.62
2018-07-27T16:15:02.743Z,97149.05
2018-07-27T16:17:31.429Z,97143.66
2018-07-27T16:20:00.118Z,97141.84
2018-07-27T16:22:28.754Z,97140.87
2018-07-27T16:24:57.518Z,97134.98
2018-07-27T16:27:26.777Z,97135.72
2018-07-27T16:29:55.470Z,97132.47
2018-07-27T16:32:24.427Z,97136.64
2018-07-27T16:34:53.209Z,97130.95
2018-07-27T16:37:21.890Z,97128.84
2018-07-27T16:39:50.757Z,97140.92
2018-07-27T16:42:19.378Z,97138.09
2018-07-27T16:44:48.878Z,97136.80
2018-07-27T16:47:18.258Z,97129.23
2018-07-27T16:49:47.602Z,97132.11
2018-07-27T16:52:16.296Z,97135.09
2018-07-27T16:54:44.924Z,97135.39
2018-07-27T16:57:13.642Z,97134.78
2018-07-27T16:59:42.564Z,97142.34
2018-07-27T17:02:11.342Z,97137.17
2018-07-27T17:04:39.977Z,97138.02
2018-07-27T17:07:08.635Z,97131.89
2018-07-27T17:09:37.384Z,97131.30
2018-07-27T17:12:06.417Z,97141.70
2018-07-27T17:14:35.572Z,97135.10
2018-07-27T17:17:04.476Z,97130.42
2018-07-27T17:19:33.434Z,97123.16
2018-07-27T17:22:02.365Z,97135.03
2018-07-27T17:24:32.231Z,97137.00
2018-07-27T17:27:01.050Z,97134.01
2018-07-27T17:29:29.832Z,97134.23
2018-07-27T17:31:58.551Z,97134.67
2018-07-27T17:34:27.760Z,97133.04
2018-07-27T17:36:57.709Z,97130.89
2018-07-27T17:39:27.204Z,97128.48
2018-07-27T17:41:56.237Z,97129.96
2018-07-27T17:44:24.987Z,97127.63
2018-07-27T17:46:53.701Z,97129.23
2018-07-27T17:49:23.397Z,97135.05
2018-07-27T17:51:52.458Z,97134.69
2018-07-27T17:54:21.192Z,97134.91
2018-07-27T17:56:49.828Z,97136.56
2018-07-27T17:59:19.224Z,97139.46
2018-07-27T18:01:47.979Z,97136.79
2018-07-27T18:04:16.925Z,97140.30
2018-07-27T18:06:45.668Z,97137.97
2018-07-27T18:09:14.623Z,97142.57
2018-07-27T18:11:43.297Z,97141.79
2018-07-27T18:14:12.036Z,97142.52
2018-07-27T18:16:40.769Z,97141.13
2018-07-27T18:19:09.438Z,97138.52
2018-07-27T18:21:38.544Z,97142.16
2018-07-27T18:24:07.580Z,97143.03
2018-07-27T18:26:36.502Z,97141.47
2018-07-27T18:29:05.219Z,97148.31
2018-07-27T18:31:33.912Z,97141.03
2018-07-27T18:34:02.604Z,97150.39
2018-07-27T18:36:31.298Z,97147.02
2018-07-27T18:39:00.143Z,97143.14
2018-07-27T18:41:28.761Z,97142.27
2018-07-27T18:43:57.474Z,97141.92
2018-07-27T18:46:26.182Z,97143.22
2018-07-27T18:48:54.841Z,97145.22
2018-07-27T18:51:23.556Z,97143.87
2018-07-27T18:53:52.297Z,97153.61
2018-07-27T18:56:21.043Z,97149.39
2018-07-27T18:58:49.773Z,97153.23
2018-07-27T19:01:18.555Z,97150.14
2018-07-27T19:03:47.196Z,97148.66
2018-07-27T19:06:15.854Z,97156.28
2018-07-27T19:08:44.584Z,97151.19
2018-07-27T19:11:13.479Z,97157.77
2018-07-27T19:13:42.240Z,97157.77
2018-07-27T19:16:11.500Z,97158.47
2018-07-27T19:18:40.392Z,97167.55
2018-07-27T19:21:09.433Z,97164.61
2018-07-27T19:23:38.434Z,97167.97
2018-07-27T19:26:07.108Z,97168.05
2018-07-27T19:28:35.810Z,97164.84
2018-07-27T19:31:04.613Z,97170.02
2018-07-27T19:33:33.308Z,97173.01
2018-07-27T19:36:02.177Z,97179.63
2018-07-27T19:38:31.043Z,97181.34
2018-07-27T19:40:59.744Z,97176.19
2018-07-27T19:43:28.487Z,97178.16
2018-07-27T19:45:57.503Z,97183.59
2018-07-27T19:48:26.333Z,97182.48
2018-07-27T19:50:56.000Z,97182.07
2018-07-27T19:53:24.935Z,97185.06
2018-07-27T19:55:53.628Z,97184.28
2018-07-27T19:58:22.302Z,97183.91
2018-07-27T20:00:51.386Z,97187.87
2018-07-27T20:03:20.090Z,97181.20
2018-07-27T20:05:49.170Z,97182.47
2018-07-27T20:08:17.844Z,97189.00
2018-07-27T20:10:46.646Z,97180.63
2018-07-27T20:13:15.263Z,97183.84
2018-07-27T20:15:44.544Z,97185.22
2018-07-27T20:18:13.219Z,97180.52
2018-07-27T20:20:41.954Z,97184.11
2018-07-27T20:23:10.696Z,97186.50
2018-07-27T20:25:40.198Z,97187.70
2018-07-27T20:28:08.940Z,97193.64
2018-07-27T20:30:37.619Z,97197.51
2018-07-27T20:33:06.376Z,97189.34
2018-07-27T20:35:35.387Z,97190.87
2018-07-27T20:38:04.111Z,97188.26
2018-07-27T20:40:32.820Z,97195.16
2018-07-27T20:43:02.745Z,97191.20
2018-07-27T20:45:31.461Z,97189.45
2018-07-27T20:48:00.086Z,97188.89
2018-07-27T20:50:28.787Z,97187.92
2018-07-27T20:52:57.923Z,97189.52
2018-07-27T20:55:26.645Z,97190.13
2018-07-27T20:57:56.491Z,97193.73
2018-07-27T21:00:25.412Z,97188.44
2018-07-27T21:02:54.156Z,97188.47
2018-07-27T21:05:22.816Z,97184.58
2018-07-27T21:07:51.495Z,97185.69
2018-07-27T21:10:20.152Z,97184.68
2018-07-27T21:12:48.959Z,97186.44
2018-07-27T21:15:17.887Z,97191.70
2018-07-27T21:17:47.653Z,97186.63
2018-07-27T21:20:16.511Z,97189.60
2018-07-27T21:22:47.908Z,97151.25
2018-07-27T21:25:17.178Z,97193.62
2018-07-27T21:27:46.995Z,97185.16
2018-07-27T21:30:17.780Z,97189.52
2018-07-27T21:32:47.071Z,97190.35
2018-07-27T21:35:17.555Z,97186.88
2018-07-27T21:37:51.925Z,97187.71
2018-07-27T21:40:22.005Z,97189.15
2018-07-27T21:42:52.855Z,97184.28
2018-07-27T21:45:29.145Z,97183.11
2018-07-27T21:47:59.285Z,97183.91
2018-07-27T21:50:28.854Z,97182.34
2018-07-27T21:53:00.122Z,97177.45
2018-07-27T21:55:32.857Z,97179.04
2018-07-27T21:58:03.796Z,97163.88
2018-07-27T22:00:35.224Z,97164.64
2018-07-27T22:03:06.086Z,97163.69
2018-07-27T22:05:35.168Z,97156.98
2018-07-27T22:08:03.876Z,97155.03
2018-07-27T22:10:34.819Z,97158.29
2018-07-27T22:13:05.957Z,97155.92
2018-07-27T22:15:36.914Z,97155.75
2018-07-27T22:18:08.236Z,97162.50
2018-07-27T22:20:39.060Z,97164.30
2018-07-27T22:23:09.714Z,97159.59
2018-07-27T22:25:38.529Z,97157.70
2018-07-27T22:28:07.239Z,97149.91
2018-07-27T22:30:36.916Z,97149.75
2018-07-27T22:33:05.922Z,97151.78
2018-07-27T22:35:37.036Z,97143.14
2018-07-27T22:38:07.727Z,97141.96
2018-07-27T22:40:38.927Z,97140.63
2018-07-27T22:43:10.796Z,97136.73
2018-07-27T22:45:40.930Z,97140.66
2018-07-27T22:48:11.750Z,97142.66
2018-07-27T22:50:44.099Z,97140.26
2018-07-27T22:53:14.929Z,97134.55
2018-07-27T22:55:47.482Z,97133.98
2018-07-27T22:58:18.496Z,97130.67
2018-07-27T23:00:49.478Z,97128.90
2018-07-27T23:03:22.813Z,97133.42
2018-07-27T23:05:52.178Z,97135.61
2018-07-27T23:08:21.599Z,97127.55
2018-07-27T23:10:50.953Z,97128.37
2018-07-27T23:13:20.736Z,97138.03
2018-07-27T23:15:50.268Z,97133.16
2018-07-27T23:18:18.946Z,97130.02
2018-07-27T23:20:47.641Z,97134.15
2018-07-27T23:23:16.503Z,97130.80
2018-07-27T23:25:45.181Z,97130.02
2018-07-27T23:28:13.832Z,97121.58
2018-07-27T23:30:42.491Z,97124.56
2018-07-27T23:33:11.113Z,97119.81
2018-07-27T23:35:39.794Z,97123.19
2018-07-27T23:38:08.403Z,97113.13
2018-07-27T23:40:37.004Z,97114.52
2018-07-27T23:43:05.970Z,97109.05
2018-07-27T23:45:34.619Z,97104.54
2018-07-27T23:48:03.353Z,97108.47
2018-07-27T23:50:31.975Z,97101.00
2018-07-27T23:53:00.574Z,97097.27
2018-07-27T23:55:29.647Z,97093.57
2018-07-27T23:57:58.335Z,97101.22
